sensor_id;sensor_type;location;lat;lon;timestamp;P1;durP1;ratioP1;P2;durP2;ratioP2
41837;SDS011;27511;52.042;5.178;2022-11-04T00:00:15;5.22;;;1.50;;
41837;SDS011;27511;52.042;5.178;2022-11-04T00:02:41;1.85;;;1.17;;
41837;SDS011;27511;52.042;5.178;2022-11-04T00:05:06;2.80;;;1.27;;
41837;SDS011;27511;52.042;5.178;2022-11-04T00:07:32;1.35;;;1.02;;
41837;SDS011;27511;52.042;5.178;2022-11-04T00:10:16;2.08;;;0.93;;
41837;SDS011;27511;52.042;5.178;2022-11-04T00:13:01;4.07;;;1.00;;
41837;SDS011;27511;52.042;5.178;2022-11-04T00:15:27;4.60;;;1.58;;
41837;SDS011;27511;52.042;5.178;2022-11-04T00:18:11;3.55;;;1.48;;
41837;SDS011;27511;52.042;5.178;2022-11-04T00:20:37;1.95;;;1.40;;
41837;SDS011;27511;52.042;5.178;2022-11-04T00:23:21;4.53;;;1.88;;
41837;SDS011;27511;52.042;5.178;2022-11-04T00:26:06;3.20;;;1.33;;
41837;SDS011;27511;52.042;5.178;2022-11-04T00:28:52;3.47;;;0.90;;
41837;SDS011;27511;52.042;5.178;2022-11-04T00:31:18;3.80;;;1.02;;
41837;SDS011;27511;52.042;5.178;2022-11-04T00:34:02;1.92;;;1.08;;
41837;SDS011;27511;52.042;5.178;2022-11-04T00:36:27;4.78;;;1.33;;
41837;SDS011;27511;52.042;5.178;2022-11-04T00:38:53;1.95;;;0.95;;
41837;SDS011;27511;52.042;5.178;2022-11-04T00:41:19;2.30;;;1.20;;
41837;SDS011;27511;52.042;5.178;2022-11-04T00:43:54;5.15;;;1.42;;
41837;SDS011;27511;52.042;5.178;2022-11-04T00:46:21;1.65;;;1.30;;
41837;SDS011;27511;52.042;5.178;2022-11-04T00:48:47;1.80;;;1.42;;
41837;SDS011;27511;52.042;5.178;2022-11-04T00:51:13;3.50;;;1.48;;
41837;SDS011;27511;52.042;5.178;2022-11-04T00:53:39;2.05;;;1.42;;
41837;SDS011;27511;52.042;5.178;2022-11-04T00:56:04;3.97;;;1.50;;
41837;SDS011;27511;52.042;5.178;2022-11-04T00:58:30;3.47;;;1.60;;
41837;SDS011;27511;52.042;5.178;2022-11-04T01:00:56;3.40;;;1.45;;
41837;SDS011;27511;52.042;5.178;2022-11-04T01:03:21;2.72;;;1.23;;
41837;SDS011;27511;52.042;5.178;2022-11-04T01:05:47;3.55;;;1.58;;
41837;SDS011;27511;52.042;5.178;2022-11-04T01:08:12;3.00;;;1.25;;
41837;SDS011;27511;52.042;5.178;2022-11-04T01:10:38;1.73;;;1.13;;
41837;SDS011;27511;52.042;5.178;2022-11-04T01:13:08;1.98;;;1.13;;
41837;SDS011;27511;52.042;5.178;2022-11-04T01:15:35;1.63;;;0.85;;
41837;SDS011;27511;52.042;5.178;2022-11-04T01:18:02;1.23;;;0.93;;
41837;SDS011;27511;52.042;5.178;2022-11-04T01:20:28;2.42;;;1.00;;
41837;SDS011;27511;52.042;5.178;2022-11-04T01:22:53;5.22;;;1.13;;
41837;SDS011;27511;52.042;5.178;2022-11-04T01:25:19;1.58;;;0.82;;
41837;SDS011;27511;52.042;5.178;2022-11-04T01:27:44;2.88;;;1.10;;
41837;SDS011;27511;52.042;5.178;2022-11-04T01:30:10;2.40;;;1.00;;
41837;SDS011;27511;52.042;5.178;2022-11-04T01:32:36;3.00;;;1.38;;
41837;SDS011;27511;52.042;5.178;2022-11-04T01:35:01;1.70;;;1.20;;
41837;SDS011;27511;52.042;5.178;2022-11-04T01:37:27;2.85;;;1.30;;
41837;SDS011;27511;52.042;5.178;2022-11-04T01:39:53;2.05;;;1.30;;
41837;SDS011;27511;52.042;5.178;2022-11-04T01:42:21;2.53;;;1.13;;
41837;SDS011;27511;52.042;5.178;2022-11-04T01:44:49;2.45;;;1.17;;
41837;SDS011;27511;52.042;5.178;2022-11-04T01:47:25;1.17;;;0.77;;
41837;SDS011;27511;52.042;5.178;2022-11-04T01:50:04;0.98;;;0.65;;
41837;SDS011;27511;52.042;5.178;2022-11-04T01:55:19;2.85;;;0.95;;
41837;SDS011;27511;52.042;5.178;2022-11-04T01:57:48;1.38;;;1.00;;
41837;SDS011;27511;52.042;5.178;2022-11-04T02:00:15;0.77;;;0.68;;
41837;SDS011;27511;52.042;5.178;2022-11-04T02:03:25;1.13;;;0.43;;
41837;SDS011;27511;52.042;5.178;2022-11-04T02:05:36;3.78;;;0.90;;
41837;SDS011;27511;52.042;5.178;2022-11-04T02:08:03;1.77;;;0.80;;
41837;SDS011;27511;52.042;5.178;2022-11-04T02:10:30;1.02;;;0.57;;
41837;SDS011;27511;52.042;5.178;2022-11-04T02:12:57;1.92;;;0.80;;
41837;SDS011;27511;52.042;5.178;2022-11-04T02:20:47;3.45;;;1.65;;
41837;SDS011;27511;52.042;5.178;2022-11-04T02:34:18;5.18;;;0.98;;
41837;SDS011;27511;52.042;5.178;2022-11-04T02:37:16;2.78;;;1.10;;
41837;SDS011;27511;52.042;5.178;2022-11-04T02:39:52;1.60;;;1.30;;
41837;SDS011;27511;52.042;5.178;2022-11-04T02:45:16;3.53;;;1.23;;
41837;SDS011;27511;52.042;5.178;2022-11-04T02:47:49;2.95;;;1.02;;
41837;SDS011;27511;52.042;5.178;2022-11-04T02:50:22;1.10;;;0.98;;
41837;SDS011;27511;52.042;5.178;2022-11-04T02:52:57;2.95;;;1.27;;
41837;SDS011;27511;52.042;5.178;2022-11-04T02:55:37;1.58;;;1.10;;
41837;SDS011;27511;52.042;5.178;2022-11-04T02:58:13;1.63;;;0.85;;
41837;SDS011;27511;52.042;5.178;2022-11-04T03:00:45;1.27;;;1.08;;
41837;SDS011;27511;52.042;5.178;2022-11-04T03:03:13;4.47;;;1.35;;
41837;SDS011;27511;52.042;5.178;2022-11-04T03:05:43;3.58;;;1.80;;
41837;SDS011;27511;52.042;5.178;2022-11-04T03:08:17;3.13;;;1.50;;
41837;SDS011;27511;52.042;5.178;2022-11-04T03:10:54;3.95;;;1.50;;
41837;SDS011;27511;52.042;5.178;2022-11-04T03:13:35;2.72;;;1.58;;
41837;SDS011;27511;52.042;5.178;2022-11-04T03:16:11;3.85;;;1.95;;
41837;SDS011;27511;52.042;5.178;2022-11-04T03:21:19;2.17;;;1.55;;
41837;SDS011;27511;52.042;5.178;2022-11-04T03:23:46;3.90;;;1.55;;
41837;SDS011;27511;52.042;5.178;2022-11-04T03:31:44;2.20;;;1.48;;
41837;SDS011;27511;52.042;5.178;2022-11-04T03:34:26;2.53;;;1.48;;
41837;SDS011;27511;52.042;5.178;2022-11-04T03:36:52;4.93;;;1.60;;
41837;SDS011;27511;52.042;5.178;2022-11-04T03:39:17;2.50;;;1.45;;
41837;SDS011;27511;52.042;5.178;2022-11-04T03:41:45;2.95;;;1.95;;
41837;SDS011;27511;52.042;5.178;2022-11-04T03:44:14;2.92;;;1.83;;
41837;SDS011;27511;52.042;5.178;2022-11-04T03:46:40;3.10;;;1.90;;
41837;SDS011;27511;52.042;5.178;2022-11-04T03:49:06;2.20;;;1.52;;
41837;SDS011;27511;52.042;5.178;2022-11-04T03:51:33;5.28;;;2.22;;
41837;SDS011;27511;52.042;5.178;2022-11-04T03:53:59;5.53;;;2.88;;
41837;SDS011;27511;52.042;5.178;2022-11-04T03:56:47;4.35;;;3.08;;
41837;SDS011;27511;52.042;5.178;2022-11-04T03:59:37;6.47;;;3.47;;
41837;SDS011;27511;52.042;5.178;2022-11-04T04:02:16;5.68;;;3.47;;
41837;SDS011;27511;52.042;5.178;2022-11-04T04:07:29;12.88;;;6.13;;
41837;SDS011;27511;52.042;5.178;2022-11-04T04:10:00;9.50;;;6.43;;
41837;SDS011;27511;52.042;5.178;2022-11-04T04:12:54;15.25;;;7.22;;
41837;SDS011;27511;52.042;5.178;2022-11-04T04:15:25;14.18;;;7.00;;
41837;SDS011;27511;52.042;5.178;2022-11-04T04:17:55;12.32;;;6.32;;
41837;SDS011;27511;52.042;5.178;2022-11-04T04:20:27;9.52;;;6.13;;
41837;SDS011;27511;52.042;5.178;2022-11-04T04:23:06;12.95;;;7.40;;
41837;SDS011;27511;52.042;5.178;2022-11-04T04:25:53;10.57;;;7.40;;
41837;SDS011;27511;52.042;5.178;2022-11-04T04:28:40;10.93;;;6.30;;
41837;SDS011;27511;52.042;5.178;2022-11-04T04:31:07;12.95;;;7.05;;
41837;SDS011;27511;52.042;5.178;2022-11-04T04:33:35;11.52;;;7.00;;
41837;SDS011;27511;52.042;5.178;2022-11-04T04:36:02;12.93;;;7.65;;
41837;SDS011;27511;52.042;5.178;2022-11-04T04:38:30;14.10;;;7.68;;
41837;SDS011;27511;52.042;5.178;2022-11-04T04:41:17;11.70;;;6.78;;
41837;SDS011;27511;52.042;5.178;2022-11-04T04:44:08;11.52;;;7.38;;
41837;SDS011;27511;52.042;5.178;2022-11-04T04:46:57;12.88;;;7.38;;
41837;SDS011;27511;52.042;5.178;2022-11-04T04:49:24;14.77;;;6.93;;
41837;SDS011;27511;52.042;5.178;2022-11-04T04:51:58;13.38;;;7.30;;
41837;SDS011;27511;52.042;5.178;2022-11-04T04:54:25;12.02;;;6.97;;
41837;SDS011;27511;52.042;5.178;2022-11-04T04:56:51;12.55;;;7.07;;
41837;SDS011;27511;52.042;5.178;2022-11-04T04:59:16;14.13;;;7.78;;
41837;SDS011;27511;52.042;5.178;2022-11-04T05:01:42;12.43;;;7.65;;
41837;SDS011;27511;52.042;5.178;2022-11-04T05:04:07;11.07;;;6.82;;
41837;SDS011;27511;52.042;5.178;2022-11-04T05:06:33;14.65;;;9.00;;
41837;SDS011;27511;52.042;5.178;2022-11-04T05:08:59;15.00;;;8.15;;
41837;SDS011;27511;52.042;5.178;2022-11-04T05:11:24;15.13;;;7.72;;
41837;SDS011;27511;52.042;5.178;2022-11-04T05:13:50;12.63;;;7.90;;
41837;SDS011;27511;52.042;5.178;2022-11-04T05:16:15;11.70;;;6.70;;
41837;SDS011;27511;52.042;5.178;2022-11-04T05:18:41;17.30;;;7.50;;
41837;SDS011;27511;52.042;5.178;2022-11-04T05:21:07;15.05;;;7.60;;
41837;SDS011;27511;52.042;5.178;2022-11-04T05:23:36;12.00;;;7.00;;
41837;SDS011;27511;52.042;5.178;2022-11-04T05:26:02;13.68;;;7.70;;
41837;SDS011;27511;52.042;5.178;2022-11-04T05:28:28;13.25;;;7.70;;
41837;SDS011;27511;52.042;5.178;2022-11-04T05:30:54;11.65;;;7.57;;
41837;SDS011;27511;52.042;5.178;2022-11-04T05:33:20;10.82;;;6.82;;
41837;SDS011;27511;52.042;5.178;2022-11-04T05:35:46;12.10;;;7.40;;
41837;SDS011;27511;52.042;5.178;2022-11-04T05:38:11;12.40;;;7.07;;
41837;SDS011;27511;52.042;5.178;2022-11-04T05:40:37;11.93;;;6.75;;
41837;SDS011;27511;52.042;5.178;2022-11-04T05:43:02;13.93;;;7.65;;
41837;SDS011;27511;52.042;5.178;2022-11-04T05:45:28;12.30;;;6.35;;
41837;SDS011;27511;52.042;5.178;2022-11-04T05:47:57;15.90;;;7.95;;
41837;SDS011;27511;52.042;5.178;2022-11-04T05:50:27;11.98;;;7.28;;
41837;SDS011;27511;52.042;5.178;2022-11-04T05:52:57;10.57;;;7.10;;
41837;SDS011;27511;52.042;5.178;2022-11-04T05:55:24;12.73;;;7.05;;
41837;SDS011;27511;52.042;5.178;2022-11-04T05:57:51;15.80;;;8.15;;
41837;SDS011;27511;52.042;5.178;2022-11-04T06:00:16;12.27;;;6.78;;
41837;SDS011;27511;52.042;5.178;2022-11-04T06:02:42;14.15;;;7.57;;
41837;SDS011;27511;52.042;5.178;2022-11-04T06:05:08;14.32;;;8.18;;
41837;SDS011;27511;52.042;5.178;2022-11-04T06:07:33;13.52;;;7.13;;
41837;SDS011;27511;52.042;5.178;2022-11-04T06:09:59;11.50;;;6.72;;
41837;SDS011;27511;52.042;5.178;2022-11-04T06:12:24;13.15;;;7.80;;
41837;SDS011;27511;52.042;5.178;2022-11-04T06:14:50;14.25;;;7.95;;
41837;SDS011;27511;52.042;5.178;2022-11-04T06:17:17;14.35;;;7.57;;
41837;SDS011;27511;52.042;5.178;2022-11-04T06:19:46;13.48;;;8.13;;
41837;SDS011;27511;52.042;5.178;2022-11-04T06:22:12;12.43;;;6.88;;
41837;SDS011;27511;52.042;5.178;2022-11-04T06:24:40;12.82;;;7.72;;
41837;SDS011;27511;52.042;5.178;2022-11-04T06:27:06;14.80;;;9.13;;
41837;SDS011;27511;52.042;5.178;2022-11-04T06:29:32;14.80;;;8.32;;
41837;SDS011;27511;52.042;5.178;2022-11-04T06:31:57;14.45;;;8.88;;
41837;SDS011;27511;52.042;5.178;2022-11-04T06:34:23;14.25;;;8.27;;
41837;SDS011;27511;52.042;5.178;2022-11-04T06:36:49;15.90;;;8.90;;
41837;SDS011;27511;52.042;5.178;2022-11-04T06:39:14;14.57;;;8.60;;
41837;SDS011;27511;52.042;5.178;2022-11-04T06:41:40;15.75;;;9.25;;
41837;SDS011;27511;52.042;5.178;2022-11-04T06:44:06;13.45;;;8.75;;
41837;SDS011;27511;52.042;5.178;2022-11-04T06:48:59;13.93;;;7.97;;
41837;SDS011;27511;52.042;5.178;2022-11-04T06:51:25;11.85;;;7.55;;
41837;SDS011;27511;52.042;5.178;2022-11-04T06:53:51;12.57;;;7.50;;
41837;SDS011;27511;52.042;5.178;2022-11-04T06:56:16;9.05;;;6.30;;
41837;SDS011;27511;52.042;5.178;2022-11-04T06:58:42;9.95;;;6.53;;
41837;SDS011;27511;52.042;5.178;2022-11-04T07:01:11;10.52;;;6.47;;
41837;SDS011;27511;52.042;5.178;2022-11-04T07:03:36;10.80;;;6.22;;
41837;SDS011;27511;52.042;5.178;2022-11-04T07:06:08;10.52;;;6.03;;
41837;SDS011;27511;52.042;5.178;2022-11-04T07:08:35;8.02;;;5.90;;
41837;SDS011;27511;52.042;5.178;2022-11-04T07:11:01;8.27;;;6.22;;
41837;SDS011;27511;52.042;5.178;2022-11-04T07:13:27;9.32;;;5.72;;
41837;SDS011;27511;52.042;5.178;2022-11-04T07:15:52;9.85;;;5.93;;
41837;SDS011;27511;52.042;5.178;2022-11-04T07:18:18;16.25;;;6.10;;
41837;SDS011;27511;52.042;5.178;2022-11-04T07:20:44;10.40;;;6.15;;
41837;SDS011;27511;52.042;5.178;2022-11-04T07:23:09;10.55;;;6.35;;
41837;SDS011;27511;52.042;5.178;2022-11-04T07:25:35;10.10;;;6.15;;
41837;SDS011;27511;52.042;5.178;2022-11-04T07:28:00;10.25;;;6.25;;
41837;SDS011;27511;52.042;5.178;2022-11-04T07:30:26;12.23;;;6.22;;
41837;SDS011;27511;52.042;5.178;2022-11-04T07:32:51;10.70;;;6.75;;
41837;SDS011;27511;52.042;5.178;2022-11-04T07:35:17;9.80;;;6.10;;
41837;SDS011;27511;52.042;5.178;2022-11-04T07:37:43;9.13;;;5.80;;
41837;SDS011;27511;52.042;5.178;2022-11-04T07:40:08;12.48;;;6.00;;
41837;SDS011;27511;52.042;5.178;2022-11-04T07:42:34;10.15;;;5.72;;
41837;SDS011;27511;52.042;5.178;2022-11-04T07:45:00;7.43;;;5.13;;
41837;SDS011;27511;52.042;5.178;2022-11-04T07:47:28;10.63;;;6.05;;
41837;SDS011;27511;52.042;5.178;2022-11-04T07:49:54;8.50;;;5.28;;
41837;SDS011;27511;52.042;5.178;2022-11-04T07:52:20;10.80;;;5.28;;
41837;SDS011;27511;52.042;5.178;2022-11-04T07:54:45;7.53;;;5.40;;
41837;SDS011;27511;52.042;5.178;2022-11-04T07:57:11;8.65;;;5.38;;
41837;SDS011;27511;52.042;5.178;2022-11-04T07:59:36;11.15;;;5.15;;
41837;SDS011;27511;52.042;5.178;2022-11-04T08:02:02;8.88;;;5.05;;
41837;SDS011;27511;52.042;5.178;2022-11-04T08:04:27;8.82;;;4.93;;
41837;SDS011;27511;52.042;5.178;2022-11-04T08:06:53;10.98;;;5.40;;
41837;SDS011;27511;52.042;5.178;2022-11-04T08:09:18;9.88;;;5.25;;
41837;SDS011;27511;52.042;5.178;2022-11-04T08:11:44;6.10;;;4.72;;
41837;SDS011;27511;52.042;5.178;2022-11-04T08:14:09;11.05;;;5.97;;
41837;SDS011;27511;52.042;5.178;2022-11-04T08:16:35;9.00;;;4.57;;
41837;SDS011;27511;52.042;5.178;2022-11-04T08:19:01;11.10;;;4.82;;
41837;SDS011;27511;52.042;5.178;2022-11-04T08:21:30;9.77;;;5.28;;
41837;SDS011;27511;52.042;5.178;2022-11-04T08:23:56;9.38;;;5.63;;
41837;SDS011;27511;52.042;5.178;2022-11-04T08:26:22;9.55;;;5.32;;
41837;SDS011;27511;52.042;5.178;2022-11-04T08:28:48;9.32;;;5.53;;
41837;SDS011;27511;52.042;5.178;2022-11-04T08:31:16;9.60;;;5.38;;
41837;SDS011;27511;52.042;5.178;2022-11-04T08:33:44;8.32;;;4.85;;
41837;SDS011;27511;52.042;5.178;2022-11-04T08:36:14;8.18;;;5.03;;
41837;SDS011;27511;52.042;5.178;2022-11-04T08:38:41;10.85;;;5.30;;
41837;SDS011;27511;52.042;5.178;2022-11-04T08:41:08;9.80;;;5.07;;
41837;SDS011;27511;52.042;5.178;2022-11-04T08:43:35;12.13;;;5.65;;
41837;SDS011;27511;52.042;5.178;2022-11-04T08:46:01;7.78;;;4.60;;
41837;SDS011;27511;52.042;5.178;2022-11-04T08:48:28;11.30;;;5.47;;
41837;SDS011;27511;52.042;5.178;2022-11-04T08:50:55;9.13;;;4.82;;
41837;SDS011;27511;52.042;5.178;2022-11-04T08:53:23;6.90;;;4.93;;
41837;SDS011;27511;52.042;5.178;2022-11-04T08:55:48;9.02;;;5.25;;
41837;SDS011;27511;52.042;5.178;2022-11-04T08:58:14;14.00;;;5.75;;
41837;SDS011;27511;52.042;5.178;2022-11-04T09:00:41;10.20;;;5.72;;
41837;SDS011;27511;52.042;5.178;2022-11-04T09:03:06;9.85;;;6.25;;
41837;SDS011;27511;52.042;5.178;2022-11-04T09:05:32;13.50;;;7.10;;
41837;SDS011;27511;52.042;5.178;2022-11-04T09:08:00;11.57;;;6.28;;
41837;SDS011;27511;52.042;5.178;2022-11-04T09:10:26;12.45;;;6.75;;
41837;SDS011;27511;52.042;5.178;2022-11-04T09:12:52;11.82;;;6.60;;
41837;SDS011;27511;52.042;5.178;2022-11-04T09:15:18;13.15;;;7.03;;
41837;SDS011;27511;52.042;5.178;2022-11-04T09:17:43;15.80;;;7.30;;
41837;SDS011;27511;52.042;5.178;2022-11-04T09:20:09;13.13;;;6.70;;
41837;SDS011;27511;52.042;5.178;2022-11-04T09:22:36;15.48;;;6.70;;
41837;SDS011;27511;52.042;5.178;2022-11-04T09:25:01;16.05;;;7.38;;
41837;SDS011;27511;52.042;5.178;2022-11-04T09:27:27;14.70;;;7.72;;
41837;SDS011;27511;52.042;5.178;2022-11-04T09:29:53;10.10;;;6.82;;
41837;SDS011;27511;52.042;5.178;2022-11-04T09:32:19;19.00;;;8.05;;
41837;SDS011;27511;52.042;5.178;2022-11-04T09:34:44;15.55;;;8.57;;
41837;SDS011;27511;52.042;5.178;2022-11-04T09:37:10;18.80;;;8.82;;
41837;SDS011;27511;52.042;5.178;2022-11-04T09:39:35;15.30;;;8.30;;
41837;SDS011;27511;52.042;5.178;2022-11-04T09:44:40;15.48;;;8.73;;
41837;SDS011;27511;52.042;5.178;2022-11-04T09:47:12;15.30;;;8.63;;
41837;SDS011;27511;52.042;5.178;2022-11-04T09:49:40;13.88;;;8.43;;
41837;SDS011;27511;52.042;5.178;2022-11-04T09:52:14;13.68;;;9.13;;
41837;SDS011;27511;52.042;5.178;2022-11-04T09:55:03;14.07;;;8.48;;
41837;SDS011;27511;52.042;5.178;2022-11-04T09:57:47;14.40;;;8.23;;
41837;SDS011;27511;52.042;5.178;2022-11-04T10:00:20;16.02;;;8.93;;
41837;SDS011;27511;52.042;5.178;2022-11-04T10:11:06;18.13;;;8.63;;
41837;SDS011;27511;52.042;5.178;2022-11-04T10:13:51;16.13;;;8.82;;
41837;SDS011;27511;52.042;5.178;2022-11-04T10:16:55;21.70;;;10.40;;
41837;SDS011;27511;52.042;5.178;2022-11-04T10:19:37;17.92;;;10.23;;
41837;SDS011;27511;52.042;5.178;2022-11-04T10:22:34;18.85;;;10.80;;
41837;SDS011;27511;52.042;5.178;2022-11-04T10:25:24;15.80;;;11.02;;
41837;SDS011;27511;52.042;5.178;2022-11-04T10:27:58;20.35;;;10.65;;
41837;SDS011;27511;52.042;5.178;2022-11-04T10:30:24;18.42;;;10.52;;
41837;SDS011;27511;52.042;5.178;2022-11-04T10:35:59;19.33;;;9.35;;
41837;SDS011;27511;52.042;5.178;2022-11-04T10:38:47;19.85;;;10.40;;
41837;SDS011;27511;52.042;5.178;2022-11-04T10:43:44;13.75;;;9.38;;
41837;SDS011;27511;52.042;5.178;2022-11-04T10:49:10;16.05;;;9.18;;
41837;SDS011;27511;52.042;5.178;2022-11-04T10:51:45;13.45;;;8.38;;
41837;SDS011;27511;52.042;5.178;2022-11-04T10:54:11;15.70;;;8.98;;
41837;SDS011;27511;52.042;5.178;2022-11-04T10:56:39;15.43;;;8.70;;
41837;SDS011;27511;52.042;5.178;2022-11-04T11:01:51;14.77;;;9.20;;
41837;SDS011;27511;52.042;5.178;2022-11-04T11:04:23;15.63;;;8.45;;
41837;SDS011;27511;52.042;5.178;2022-11-04T11:06:58;15.57;;;8.40;;
41837;SDS011;27511;52.042;5.178;2022-11-04T11:09:29;14.43;;;9.00;;
41837;SDS011;27511;52.042;5.178;2022-11-04T11:12:01;16.98;;;9.18;;
41837;SDS011;27511;52.042;5.178;2022-11-04T11:14:54;13.93;;;8.07;;
41837;SDS011;27511;52.042;5.178;2022-11-04T11:17:34;15.05;;;8.65;;
41837;SDS011;27511;52.042;5.178;2022-11-04T11:20:23;13.10;;;7.60;;
41837;SDS011;27511;52.042;5.178;2022-11-04T11:22:49;12.35;;;8.10;;
41837;SDS011;27511;52.042;5.178;2022-11-04T11:25:21;13.95;;;7.38;;
41837;SDS011;27511;52.042;5.178;2022-11-04T11:30:57;10.40;;;6.55;;
41837;SDS011;27511;52.042;5.178;2022-11-04T11:36:16;12.98;;;6.05;;
41837;SDS011;27511;52.042;5.178;2022-11-04T11:41:59;13.15;;;6.78;;
41837;SDS011;27511;52.042;5.178;2022-11-04T11:44:40;15.30;;;7.28;;
41837;SDS011;27511;52.042;5.178;2022-11-04T11:47:19;13.95;;;6.95;;
41837;SDS011;27511;52.042;5.178;2022-11-04T11:49:45;11.98;;;5.85;;
41837;SDS011;27511;52.042;5.178;2022-11-04T11:52:53;11.13;;;6.57;;
41837;SDS011;27511;52.042;5.178;2022-11-04T11:55:05;10.85;;;6.50;;
41837;SDS011;27511;52.042;5.178;2022-11-04T11:57:39;13.30;;;7.50;;
41837;SDS011;27511;52.042;5.178;2022-11-04T12:00:25;15.20;;;7.10;;
41837;SDS011;27511;52.042;5.178;2022-11-04T12:05:46;9.50;;;5.63;;
41837;SDS011;27511;52.042;5.178;2022-11-04T12:11:10;9.02;;;6.80;;
41837;SDS011;27511;52.042;5.178;2022-11-04T12:14:18;13.05;;;6.47;;
41837;SDS011;27511;52.042;5.178;2022-11-04T12:16:46;11.57;;;5.93;;
41837;SDS011;27511;52.042;5.178;2022-11-04T12:30:18;12.05;;;5.32;;
41837;SDS011;27511;52.042;5.178;2022-11-04T12:35:43;11.68;;;6.25;;
41837;SDS011;27511;52.042;5.178;2022-11-04T12:39:06;11.25;;;6.13;;
41837;SDS011;27511;52.042;5.178;2022-11-04T12:41:51;7.47;;;4.50;;
41837;SDS011;27511;52.042;5.178;2022-11-04T12:44:30;8.48;;;4.72;;
41837;SDS011;27511;52.042;5.178;2022-11-04T12:47:09;7.15;;;4.32;;
41837;SDS011;27511;52.042;5.178;2022-11-04T12:49:42;10.52;;;4.50;;
41837;SDS011;27511;52.042;5.178;2022-11-04T13:00:51;9.20;;;3.88;;
41837;SDS011;27511;52.042;5.178;2022-11-04T13:03:31;8.43;;;4.05;;
41837;SDS011;27511;52.042;5.178;2022-11-04T13:06:17;6.88;;;3.95;;
41837;SDS011;27511;52.042;5.178;2022-11-04T13:08:51;7.65;;;3.92;;
41837;SDS011;27511;52.042;5.178;2022-11-04T13:11:21;3.95;;;2.85;;
41837;SDS011;27511;52.042;5.178;2022-11-04T13:16:53;0.73;;;0.73;;
41837;SDS011;27511;52.042;5.178;2022-11-04T13:19:40;2.65;;;1.27;;
41837;SDS011;27511;52.042;5.178;2022-11-04T13:22:12;2.13;;;1.10;;
41837;SDS011;27511;52.042;5.178;2022-11-04T13:24:47;1.83;;;0.90;;
41837;SDS011;27511;52.042;5.178;2022-11-04T13:27:18;3.28;;;0.80;;
41837;SDS011;27511;52.042;5.178;2022-11-04T13:29:47;2.78;;;0.73;;
41837;SDS011;27511;52.042;5.178;2022-11-04T13:37:36;1.05;;;0.80;;
41837;SDS011;27511;52.042;5.178;2022-11-04T13:40:14;3.75;;;0.82;;
41837;SDS011;27511;52.042;5.178;2022-11-04T13:42:50;4.03;;;0.65;;
41837;SDS011;27511;52.042;5.178;2022-11-04T13:46:00;0.80;;;0.60;;
41837;SDS011;27511;52.042;5.178;2022-11-04T13:48:28;4.25;;;0.90;;
41837;SDS011;27511;52.042;5.178;2022-11-04T13:51:00;1.02;;;0.68;;
41837;SDS011;27511;52.042;5.178;2022-11-04T13:56:48;4.18;;;1.13;;
41837;SDS011;27511;52.042;5.178;2022-11-04T13:59:21;3.60;;;1.00;;
41837;SDS011;27511;52.042;5.178;2022-11-04T14:04:49;2.45;;;1.42;;
41837;SDS011;27511;52.042;5.178;2022-11-04T14:07:15;2.20;;;0.77;;
41837;SDS011;27511;52.042;5.178;2022-11-04T14:17:55;3.22;;;0.70;;
41837;SDS011;27511;52.042;5.178;2022-11-04T14:22:49;1.77;;;0.50;;
41837;SDS011;27511;52.042;5.178;2022-11-04T14:27:53;2.15;;;0.43;;
41837;SDS011;27511;52.042;5.178;2022-11-04T14:30:28;0.95;;;0.40;;
41837;SDS011;27511;52.042;5.178;2022-11-04T14:33:00;0.90;;;0.40;;
41837;SDS011;27511;52.042;5.178;2022-11-04T14:35:30;1.70;;;0.57;;
41837;SDS011;27511;52.042;5.178;2022-11-04T14:38:03;1.17;;;0.52;;
41837;SDS011;27511;52.042;5.178;2022-11-04T14:40:46;3.08;;;0.90;;
41837;SDS011;27511;52.042;5.178;2022-11-04T14:43:30;2.92;;;0.63;;
41837;SDS011;27511;52.042;5.178;2022-11-04T14:45:59;1.70;;;0.60;;
41837;SDS011;27511;52.042;5.178;2022-11-04T14:48:26;2.83;;;0.60;;
41837;SDS011;27511;52.042;5.178;2022-11-04T14:50:53;2.55;;;0.43;;
41837;SDS011;27511;52.042;5.178;2022-11-04T14:53:33;3.03;;;0.65;;
41837;SDS011;27511;52.042;5.178;2022-11-04T14:56:23;1.05;;;0.45;;
41837;SDS011;27511;52.042;5.178;2022-11-04T14:58:55;5.63;;;0.70;;
41837;SDS011;27511;52.042;5.178;2022-11-04T15:01:25;1.90;;;0.45;;
41837;SDS011;27511;52.042;5.178;2022-11-04T15:03:53;1.75;;;1.02;;
41837;SDS011;27511;52.042;5.178;2022-11-04T15:06:24;0.80;;;0.43;;
41837;SDS011;27511;52.042;5.178;2022-11-04T15:08:52;1.25;;;0.60;;
41837;SDS011;27511;52.042;5.178;2022-11-04T15:11:20;2.08;;;0.60;;
41837;SDS011;27511;52.042;5.178;2022-11-04T15:14:19;1.52;;;0.80;;
41837;SDS011;27511;52.042;5.178;2022-11-04T15:16:47;1.50;;;0.60;;
41837;SDS011;27511;52.042;5.178;2022-11-04T15:19:26;2.30;;;0.60;;
41837;SDS011;27511;52.042;5.178;2022-11-04T15:21:58;2.25;;;0.47;;
41837;SDS011;27511;52.042;5.178;2022-11-04T15:24:25;3.25;;;0.80;;
41837;SDS011;27511;52.042;5.178;2022-11-04T15:26:52;2.28;;;1.15;;
41837;SDS011;27511;52.042;5.178;2022-11-04T15:29:21;2.45;;;1.45;;
41837;SDS011;27511;52.042;5.178;2022-11-04T15:32:05;3.97;;;1.20;;
41837;SDS011;27511;52.042;5.178;2022-11-04T15:34:31;2.73;;;0.80;;
41837;SDS011;27511;52.042;5.178;2022-11-04T15:37:02;2.70;;;0.85;;
41837;SDS011;27511;52.042;5.178;2022-11-04T15:39:40;3.45;;;0.63;;
41837;SDS011;27511;52.042;5.178;2022-11-04T15:42:17;1.65;;;0.68;;
41837;SDS011;27511;52.042;5.178;2022-11-04T15:45:00;1.00;;;0.50;;
41837;SDS011;27511;52.042;5.178;2022-11-04T15:50:46;1.67;;;0.93;;
41837;SDS011;27511;52.042;5.178;2022-11-04T15:53:16;1.65;;;0.93;;
41837;SDS011;27511;52.042;5.178;2022-11-04T15:55:43;2.53;;;1.20;;
41837;SDS011;27511;52.042;5.178;2022-11-04T15:58:12;2.78;;;0.80;;
41837;SDS011;27511;52.042;5.178;2022-11-04T16:00:39;3.03;;;1.38;;
41837;SDS011;27511;52.042;5.178;2022-11-04T16:03:05;0.90;;;0.80;;
41837;SDS011;27511;52.042;5.178;2022-11-04T16:05:39;2.67;;;0.77;;
41837;SDS011;27511;52.042;5.178;2022-11-04T16:08:27;4.28;;;1.23;;
41837;SDS011;27511;52.042;5.178;2022-11-04T16:11:10;3.00;;;1.00;;
41837;SDS011;27511;52.042;5.178;2022-11-04T16:13:41;1.63;;;0.98;;
41837;SDS011;27511;52.042;5.178;2022-11-04T16:18:51;2.10;;;0.93;;
41837;SDS011;27511;52.042;5.178;2022-11-04T16:23:54;2.90;;;1.10;;
41837;SDS011;27511;52.042;5.178;2022-11-04T16:26:41;2.70;;;1.27;;
41837;SDS011;27511;52.042;5.178;2022-11-04T16:29:12;2.67;;;1.67;;
41837;SDS011;27511;52.042;5.178;2022-11-04T16:34:55;4.30;;;1.73;;
41837;SDS011;27511;52.042;5.178;2022-11-04T16:37:24;4.63;;;2.00;;
41837;SDS011;27511;52.042;5.178;2022-11-04T16:39:50;4.78;;;1.63;;
41837;SDS011;27511;52.042;5.178;2022-11-04T16:42:16;1.83;;;1.33;;
41837;SDS011;27511;52.042;5.178;2022-11-04T16:44:46;2.88;;;1.75;;
41837;SDS011;27511;52.042;5.178;2022-11-04T16:47:13;4.05;;;1.20;;
41837;SDS011;27511;52.042;5.178;2022-11-04T16:49:39;3.20;;;1.63;;
41837;SDS011;27511;52.042;5.178;2022-11-04T16:52:05;4.97;;;1.58;;
41837;SDS011;27511;52.042;5.178;2022-11-04T16:54:36;4.30;;;2.00;;
41837;SDS011;27511;52.042;5.178;2022-11-04T16:57:02;2.90;;;1.67;;
41837;SDS011;27511;52.042;5.178;2022-11-04T16:59:30;4.65;;;2.03;;
41837;SDS011;27511;52.042;5.178;2022-11-04T17:01:56;6.15;;;1.70;;
41837;SDS011;27511;52.042;5.178;2022-11-04T17:04:22;3.75;;;2.20;;
41837;SDS011;27511;52.042;5.178;2022-11-04T17:06:47;4.68;;;2.00;;
41837;SDS011;27511;52.042;5.178;2022-11-04T17:09:18;4.80;;;2.50;;
41837;SDS011;27511;52.042;5.178;2022-11-04T17:11:45;11.43;;;4.00;;
41837;SDS011;27511;52.042;5.178;2022-11-04T17:14:11;6.65;;;3.85;;
41837;SDS011;27511;52.042;5.178;2022-11-04T17:16:37;7.90;;;3.90;;